Time;durP1;ratioP1;P1;durP2;ratioP2;P2;SDS_P1;SDS_P2;PMS_P1;PMS_P2;Temp;Humidity;BMP_temperature;BMP_pressure;BME280_temperature;BME280_humidity;BME280_pressure;Samples;Min_cycle;Max_cycle;Signal;HPM_P1;HPM_P2
2022/05/19 00:01:58;;;;;;;1.50;1.17;;;17.50;58.80;;;;;;5129511;27;20273;-60
2022/05/19 00:04:32;;;;;;;1.63;1.42;;;17.50;58.80;;;;;;5128764;27;20256;-58
2022/05/19 00:07:02;;;;;;;2.75;1.88;;;17.40;58.80;;;;;;5131005;27;20192;-59
2022/05/19 00:09:33;;;;;;;2.53;1.70;;;17.40;58.80;;;;;;5130845;27;20189;-59
2022/05/19 00:12:07;;;;;;;2.30;1.60;;;17.50;58.90;;;;;;5131007;27;20261;-60
2022/05/19 00:14:38;;;;;;;3.33;1.70;;;17.50;59.40;;;;;;5131474;27;20244;-59
2022/05/19 00:17:09;;;;;;;2.28;1.60;;;17.40;58.80;;;;;;5131088;27;20193;-58
2022/05/19 00:19:42;;;;;;;2.22;1.67;;;17.50;58.90;;;;;;5131091;27;20197;-58
2022/05/19 00:22:12;;;;;;;2.65;1.45;;;17.40;58.90;;;;;;5130823;27;20224;-59
2022/05/19 00:24:43;;;;;;;1.73;1.52;;;17.40;58.90;;;;;;5131344;27;20200;-60
2022/05/19 00:27:14;;;;;;;2.58;1.50;;;17.40;58.90;;;;;;5130995;27;20257;-59
2022/05/19 00:29:44;;;;;;;2.70;1.65;;;17.40;58.90;;;;;;5132018;27;20339;-59
2022/05/19 00:32:15;;;;;;;1.70;1.30;;;17.50;58.90;;;;;;5131637;27;20220;-58
2022/05/19 00:34:47;;;;;;;1.75;1.40;;;17.40;58.90;;;;;;5131059;27;20228;-59
2022/05/19 00:37:17;;;;;;;1.30;1.20;;;17.40;58.90;;;;;;5130439;27;20241;-59
2022/05/19 00:39:48;;;;;;;1.60;1.50;;;17.40;58.80;;;;;;5130538;27;20254;-59
2022/05/19 00:45:07;;;;;;;1.73;1.30;;;17.40;58.90;;;;;;5131294;27;20195;-59
2022/05/19 00:47:41;;;;;;;2.00;1.50;;;17.40;58.90;;;;;;5130570;28;20199;-60
2022/05/19 00:50:20;;;;;;;1.50;1.40;;;17.40;58.90;;;;;;5130403;28;20196;-60
2022/05/19 00:52:53;;;;;;;1.70;1.48;;;17.40;58.90;;;;;;5130524;28;20216;-61
2022/05/19 00:55:27;;;;;;;2.05;1.38;;;17.40;58.90;;;;;;5130569;27;20238;-60
2022/05/19 00:58:02;;;;;;;1.77;1.30;;;17.40;58.90;;;;;;5130263;28;20240;-60
2022/05/19 01:00:33;;;;;;;1.50;1.40;;;17.40;59.00;;;;;;5130534;28;20238;-60
2022/05/19 01:03:04;;;;;;;1.70;1.35;;;17.40;59.00;;;;;;5130748;28;20193;-59
2022/05/19 01:05:41;;;;;;;1.48;1.33;;;17.40;59.00;;;;;;5130545;28;20668;-59
2022/05/19 01:08:16;;;;;;;2.72;1.70;;;17.40;59.00;;;;;;5129970;28;20708;-60
2022/05/19 01:10:48;;;;;;;1.80;1.60;;;17.40;59.10;;;;;;5130163;28;20193;-60
2022/05/19 01:13:19;;;;;;;1.88;1.50;;;17.40;59.00;;;;;;5130826;27;20220;-59
2022/05/19 01:15:54;;;;;;;1.77;1.42;;;17.40;59.10;;;;;;5134518;27;20189;-59
2022/05/19 01:18:26;;;;;;;2.17;1.40;;;17.40;59.10;;;;;;5134443;27;20238;-60
2022/05/19 01:20:59;;;;;;;1.92;1.42;;;17.50;59.10;;;;;;5134218;27;20744;-60
2022/05/19 01:23:38;;;;;;;1.90;1.70;;;17.40;59.10;;;;;;5134498;27;20205;-60
2022/05/19 01:26:21;;;;;;;1.65;1.30;;;17.40;59.10;;;;;;5134215;27;20185;-60
2022/05/19 01:28:54;;;;;;;2.13;1.35;;;17.50;59.10;;;;;;5133821;27;20197;-60
2022/05/19 01:31:33;;;;;;;2.20;1.45;;;17.50;59.20;;;;;;5134708;27;20236;-60
2022/05/19 01:34:06;;;;;;;1.55;1.45;;;17.50;59.20;;;;;;5134088;27;20192;-58
2022/05/19 01:36:37;;;;;;;2.15;1.30;;;17.50;59.30;;;;;;5134197;27;20228;-59
2022/05/19 01:39:12;;;;;;;2.42;1.67;;;17.50;59.40;;;;;;5134181;27;20265;-60
2022/05/19 01:42:10;;;;;;;2.50;1.58;;;17.50;59.40;;;;;;5130582;27;20248;-60
2022/05/19 01:44:53;;;;;;;1.80;1.50;;;17.50;59.40;;;;;;5109205;28;20185;-59
2022/05/19 01:47:33;;;;;;;2.20;1.45;;;17.50;59.40;;;;;;5113159;28;20193;-61
2022/05/19 01:50:10;;;;;;;2.10;1.30;;;17.60;59.40;;;;;;5113350;28;20197;-59
2022/05/19 01:52:54;;;;;;;2.03;1.30;;;17.60;59.40;;;;;;5113651;28;20224;-60
2022/05/19 01:55:29;;;;;;;2.08;1.70;;;17.50;59.40;;;;;;5116526;27;20802;-59
2022/05/19 01:58:07;;;;;;;1.85;1.55;;;17.60;59.40;;;;;;5133616;27;20256;-59
2022/05/19 02:00:39;;;;;;;1.45;1.33;;;17.60;59.40;;;;;;5133682;27;20200;-60
2022/05/19 02:03:19;;;;;;;1.98;1.40;;;17.60;59.40;;;;;;5133589;27;20200;-60
2022/05/19 02:05:54;;;;;;;1.75;1.20;;;17.60;59.40;;;;;;5133408;27;20721;-60
2022/05/19 02:08:30;;;;;;;1.73;1.27;;;17.60;59.40;;;;;;5133206;27;20192;-59
2022/05/19 02:11:05;;;;;;;1.70;1.60;;;17.60;59.40;;;;;;5129680;27;20744;-60
2022/05/19 02:13:36;;;;;;;1.40;1.30;;;17.60;59.40;;;;;;5132914;27;20249;-60
2022/05/19 02:16:11;;;;;;;1.67;1.50;;;17.60;59.30;;;;;;5133276;27;20197;-60
2022/05/19 02:18:43;;;;;;;1.30;1.20;;;17.60;59.30;;;;;;5133450;27;20283;-60
2022/05/19 02:21:14;;;;;;;1.95;1.52;;;17.60;59.90;;;;;;5133139;27;20532;-61
2022/05/19 02:23:46;;;;;;;1.65;1.55;;;17.70;59.30;;;;;;5133065;27;20200;-59
2022/05/19 02:26:17;;;;;;;1.85;1.55;;;17.70;59.30;;;;;;5132552;27;20196;-60
2022/05/19 02:28:52;;;;;;;1.65;1.48;;;17.70;59.30;;;;;;5132845;27;20201;-60
2022/05/19 02:31:25;;;;;;;1.92;1.73;;;17.70;59.30;;;;;;5133772;27;20269;-60
2022/05/19 02:33:55;;;;;;;1.38;1.27;;;17.70;59.40;;;;;;5133050;27;20197;-60
2022/05/19 02:36:26;;;;;;;1.50;1.38;;;17.70;59.40;;;;;;5133150;27;20740;-60
2022/05/19 02:38:56;;;;;;;1.65;1.38;;;17.70;59.40;;;;;;5133022;27;20197;-60
2022/05/19 02:41:27;;;;;;;1.33;1.23;;;17.80;59.40;;;;;;5132645;27;20228;-59
2022/05/19 02:43:57;;;;;;;1.90;1.40;;;17.80;59.50;;;;;;5132417;27;20210;-59
2022/05/19 02:46:30;;;;;;;1.95;1.35;;;17.80;59.50;;;;;;5132920;27;20201;-60
2022/05/19 02:49:02;;;;;;;2.03;1.50;;;17.80;59.50;;;;;;5132834;27;20197;-60
2022/05/19 02:51:33;;;;;;;1.35;1.10;;;17.80;59.50;;;;;;5132523;27;20252;-59
2022/05/19 02:54:03;;;;;;;1.83;1.60;;;17.80;59.50;;;;;;5132913;27;20415;-60
2022/05/19 02:56:34;;;;;;;1.65;1.50;;;17.90;59.40;;;;;;5132224;27;20264;-60
2022/05/19 02:59:04;;;;;;;1.88;1.48;;;17.90;59.50;;;;;;5132008;27;20197;-60
2022/05/19 03:01:37;;;;;;;1.73;1.40;;;17.90;59.40;;;;;;5132122;27;20225;-60
2022/05/19 03:04:07;;;;;;;1.67;1.52;;;17.90;59.40;;;;;;5131838;27;20289;-60
2022/05/19 03:06:38;;;;;;;1.67;1.42;;;17.90;59.40;;;;;;5132006;27;20196;-60
2022/05/19 03:09:09;;;;;;;1.50;1.38;;;18.00;59.40;;;;;;5132237;27;20189;-60
2022/05/19 03:11:39;;;;;;;1.38;1.20;;;18.00;59.40;;;;;;5132262;27;20257;-60
2022/05/19 03:14:10;;;;;;;1.50;1.20;;;18.00;59.40;;;;;;5131734;27;20188;-60
2022/05/19 03:16:44;;;;;;;1.25;1.15;;;18.10;59.40;;;;;;5132193;27;20684;-60
2022/05/19 03:19:15;;;;;;;1.40;1.20;;;18.00;59.30;;;;;;5132036;27;20244;-61
2022/05/19 03:21:45;;;;;;;1.52;1.27;;;18.10;59.30;;;;;;5132235;27;20606;-60
2022/05/19 03:24:18;;;;;;;1.20;1.10;;;18.10;59.20;;;;;;5132257;27;20541;-60
2022/05/19 03:26:49;;;;;;;1.70;1.40;;;18.10;59.20;;;;;;5132472;27;20188;-60
2022/05/19 03:29:22;;;;;;;1.33;1.15;;;18.10;59.20;;;;;;5131609;27;20197;-60
2022/05/19 03:31:54;;;;;;;1.20;1.10;;;18.10;59.20;;;;;;5132658;27;20221;-60
2022/05/19 03:34:25;;;;;;;1.52;1.30;;;18.10;59.10;;;;;;5131833;27;20189;-59
2022/05/19 03:36:56;;;;;;;1.27;1.17;;;18.10;59.10;;;;;;5127898;27;20189;-61
2022/05/19 03:39:26;;;;;;;1.30;1.20;;;18.10;59.10;;;;;;5131616;27;20248;-61
2022/05/19 03:41:57;;;;;;;1.20;1.10;;;18.20;59.10;;;;;;5131577;27;20311;-61
2022/05/19 03:44:27;;;;;;;1.20;1.10;;;18.20;59.00;;;;;;5131259;27;20645;-60
2022/05/19 03:47:00;;;;;;;1.20;1.10;;;18.20;59.00;;;;;;5131905;27;20242;-59
2022/05/19 03:49:30;;;;;;;1.05;0.95;;;18.10;58.90;;;;;;5132029;27;20270;-59
2022/05/19 03:52:01;;;;;;;1.40;1.10;;;18.20;58.90;;;;;;5131535;27;20257;-59
2022/05/19 03:54:32;;;;;;;1.00;0.90;;;18.20;58.90;;;;;;5131431;27;20641;-58
2022/05/19 03:57:02;;;;;;;1.23;1.13;;;18.20;58.90;;;;;;5131386;27;20565;-58
2022/05/19 03:59:33;;;;;;;0.90;0.80;;;18.20;58.90;;;;;;5130682;27;20656;-58
2022/05/19 04:02:07;;;;;;;1.10;1.00;;;18.20;58.80;;;;;;5131505;27;20256;-59
2022/05/19 04:04:37;;;;;;;0.70;0.65;;;18.20;58.80;;;;;;5131462;27;20557;-59
2022/05/19 04:07:08;;;;;;;2.90;1.10;;;18.20;58.70;;;;;;5131232;27;20663;-59
2022/05/19 04:09:39;;;;;;;1.65;0.93;;;18.20;58.70;;;;;;5131305;27;20792;-59
2022/05/19 04:12:10;;;;;;;1.10;1.00;;;18.20;59.30;;;;;;5129939;27;20285;-59
2022/05/19 04:14:41;;;;;;;2.40;1.10;;;18.20;58.70;;;;;;5129587;27;20214;-60
2022/05/19 04:17:13;;;;;;;1.23;1.00;;;18.20;58.70;;;;;;5130758;27;20236;-59
2022/05/19 04:19:44;;;;;;;1.00;0.90;;;18.20;58.70;;;;;;5130569;27;20184;-60
2022/05/19 04:22:14;;;;;;;1.00;0.90;;;18.20;58.70;;;;;;5130863;27;20307;-59
2022/05/19 04:24:45;;;;;;;0.82;0.82;;;18.20;58.70;;;;;;5131610;27;20212;-59
2022/05/19 04:27:16;;;;;;;0.70;0.70;;;18.20;58.70;;;;;;5131318;27;20261;-60
2022/05/19 04:29:47;;;;;;;1.10;1.00;;;18.20;58.70;;;;;;5130592;27;20196;-59
2022/05/19 04:32:23;;;;;;;0.80;0.80;;;18.20;58.70;;;;;;5131516;27;20217;-60
2022/05/19 04:34:54;;;;;;;1.10;0.95;;;18.20;58.70;;;;;;5131151;27;20197;-59
2022/05/19 04:37:24;;;;;;;0.93;0.90;;;18.20;58.70;;;;;;5130875;27;20189;-59
2022/05/19 04:39:55;;;;;;;1.27;1.10;;;18.20;58.70;;;;;;5130813;27;20254;-62
2022/05/19 04:42:25;;;;;;;1.38;0.95;;;18.20;58.60;;;;;;5130459;27;20297;-59
2022/05/19 04:44:57;;;;;;;1.15;0.80;;;18.20;58.60;;;;;;5130228;27;20605;-59
2022/05/19 04:47:30;;;;;;;1.23;1.00;;;18.20;58.60;;;;;;5130439;27;20599;-59
2022/05/19 04:50:00;;;;;;;1.13;0.80;;;18.20;58.60;;;;;;5130306;28;20611;-60
2022/05/19 04:52:31;;;;;;;1.13;1.02;;;18.20;58.60;;;;;;5130774;28;20635;-60
2022/05/19 04:55:02;;;;;;;1.23;1.00;;;18.20;58.50;;;;;;5130581;28;20201;-59
2022/05/19 04:57:32;;;;;;;1.00;0.90;;;18.20;58.50;;;;;;5130563;28;20218;-59
2022/05/19 05:00:03;;;;;;;1.23;0.98;;;18.20;58.50;;;;;;5130030;28;20607;-59
2022/05/19 05:02:35;;;;;;;0.80;0.80;;;18.20;58.50;;;;;;5130489;28;20225;-59
2022/05/19 05:05:07;;;;;;;1.40;1.00;;;18.20;58.50;;;;;;5130520;27;20193;-60
2022/05/19 05:07:38;;;;;;;1.17;1.00;;;18.20;58.40;;;;;;5130684;28;20250;-61
2022/05/19 05:10:09;;;;;;;1.00;0.90;;;18.20;58.50;;;;;;5130904;28;20196;-60
2022/05/19 05:12:39;;;;;;;0.95;0.75;;;18.20;58.40;;;;;;5130792;28;20269;-60
2022/05/19 05:15:12;;;;;;;1.67;1.02;;;18.20;58.40;;;;;;5130018;28;20265;-59
2022/05/19 05:17:44;;;;;;;1.70;1.05;;;18.20;58.40;;;;;;5130150;28;20265;-60
2022/05/19 05:20:15;;;;;;;1.00;0.90;;;18.20;58.40;;;;;;5130208;28;20189;-59
2022/05/19 05:22:46;;;;;;;1.40;1.13;;;18.20;58.50;;;;;;5130414;28;20228;-60
2022/05/19 05:25:18;;;;;;;0.75;0.75;;;18.10;58.40;;;;;;5130420;28;20196;-58
2022/05/19 05:27:48;;;;;;;0.98;0.88;;;18.10;58.40;;;;;;5130111;28;20213;-59
2022/05/19 05:30:19;;;;;;;1.10;1.00;;;18.10;58.40;;;;;;5129980;28;20189;-58
2022/05/19 05:32:51;;;;;;;1.20;0.98;;;18.10;58.40;;;;;;5131071;28;20225;-60
2022/05/19 05:35:22;;;;;;;1.02;0.80;;;18.10;58.40;;;;;;5129286;27;20254;-59
2022/05/19 05:37:52;;;;;;;0.85;0.85;;;18.10;58.40;;;;;;5130022;28;20349;-60
2022/05/19 05:40:26;;;;;;;0.82;0.80;;;18.10;58.30;;;;;;5130639;28;20273;-58
2022/05/19 05:42:56;;;;;;;0.90;0.90;;;18.10;58.20;;;;;;5131069;28;20240;-58
2022/05/19 05:45:27;;;;;;;0.80;0.80;;;18.10;58.20;;;;;;5131139;28;20196;-60
2022/05/19 05:47:59;;;;;;;1.20;0.90;;;18.10;58.20;;;;;;5113307;28;20182;-60
2022/05/19 05:50:30;;;;;;;1.67;1.10;;;18.10;58.20;;;;;;5110384;28;20215;-60
2022/05/19 05:53:01;;;;;;;1.33;0.82;;;18.10;58.20;;;;;;5110513;28;20217;-60
2022/05/19 05:55:31;;;;;;;1.30;1.08;;;18.00;58.10;;;;;;5114813;28;20254;-60
2022/05/19 05:58:02;;;;;;;1.42;1.20;;;18.00;58.10;;;;;;5131418;28;20237;-58
2022/05/19 06:00:32;;;;;;;1.00;0.90;;;18.00;58.10;;;;;;5132323;27;20222;-59
2022/05/19 06:03:05;;;;;;;1.92;0.85;;;18.00;58.20;;;;;;5134971;27;20638;-59
2022/05/19 06:05:36;;;;;;;0.93;0.88;;;18.00;58.20;;;;;;5134393;27;20246;-59
2022/05/19 06:08:06;;;;;;;0.93;0.90;;;18.00;58.20;;;;;;5133737;27;20665;-58
2022/05/19 06:10:37;;;;;;;1.10;1.00;;;18.00;58.20;;;;;;5130239;27;20185;-60
2022/05/19 06:13:08;;;;;;;0.80;0.77;;;18.00;58.20;;;;;;5133427;27;20216;-59
2022/05/19 06:15:39;;;;;;;1.10;0.95;;;18.00;58.20;;;;;;5133112;27;20196;-58
2022/05/19 06:18:11;;;;;;;1.10;0.90;;;18.00;58.20;;;;;;5133417;27;20197;-58
2022/05/19 06:20:42;;;;;;;1.00;0.80;;;17.90;58.10;;;;;;5133494;27;20188;-59
2022/05/19 06:23:13;;;;;;;0.80;0.80;;;17.90;58.00;;;;;;5133419;27;20224;-59
2022/05/19 06:25:43;;;;;;;1.00;0.73;;;17.90;58.00;;;;;;5133120;27;20196;-59
2022/05/19 06:28:14;;;;;;;0.75;0.68;;;17.90;58.00;;;;;;5133584;27;20189;-60
2022/05/19 06:30:51;;;;;;;1.33;0.90;;;17.90;58.00;;;;;;5132564;27;20193;-61
2022/05/19 06:33:24;;;;;;;1.02;0.70;;;17.90;57.90;;;;;;5133191;27;20268;-60
2022/05/19 06:35:54;;;;;;;1.13;0.90;;;17.90;58.50;;;;;;5133361;27;20232;-60
2022/05/19 06:38:25;;;;;;;1.17;0.80;;;17.90;57.90;;;;;;5133338;27;20193;-59
2022/05/19 06:42:00;;;;;;;0.77;0.77;;;17.90;57.80;;;;;;5132959;27;20193;-60
2022/05/19 06:43:48;;;;;;;0.80;0.77;;;17.90;57.70;;;;;;5132755;27;20232;-59
2022/05/19 06:46:18;;;;;;;1.15;0.80;;;17.90;57.70;;;;;;5132237;27;20188;-60
2022/05/19 06:48:51;;;;;;;0.75;0.70;;;17.80;57.60;;;;;;5132194;27;20324;-60
2022/05/19 06:51:21;;;;;;;0.70;0.70;;;17.90;57.60;;;;;;5132227;27;20217;-59
2022/05/19 06:53:52;;;;;;;5.03;1.83;;;17.80;57.60;;;;;;5132693;27;20193;-59
2022/05/19 06:56:23;;;;;;;15.60;3.85;;;17.80;57.60;;;;;;5132634;27;20258;-59
2022/05/19 06:58:53;;;;;;;12.30;3.55;;;17.80;57.60;;;;;;5132187;27;20222;-59
2022/05/19 07:01:24;;;;;;;12.75;3.53;;;17.80;57.60;;;;;;5131874;27;20221;-57
2022/05/19 07:03:57;;;;;;;13.23;3.85;;;17.80;57.60;;;;;;5132075;27;20276;-58
2022/05/19 07:06:28;;;;;;;14.45;5.25;;;17.80;57.50;;;;;;5132191;27;20197;-59
2022/05/19 07:08:58;;;;;;;19.83;4.65;;;17.80;57.50;;;;;;5132057;27;20215;-58
2022/05/19 07:11:29;;;;;;;17.02;4.32;;;17.80;57.50;;;;;;5131824;27;20213;-59
2022/05/19 07:14:00;;;;;;;11.55;4.82;;;17.80;57.40;;;;;;5132158;27;20201;-58
2022/05/19 07:16:31;;;;;;;13.32;4.60;;;17.80;57.40;;;;;;5131782;27;20253;-58
2022/05/19 07:21:50;;;;;;;14.77;4.60;;;17.70;57.40;;;;;;5132370;27;20623;-59
2022/05/19 07:24:22;;;;;;;14.60;5.07;;;17.70;57.40;;;;;;5131529;27;20232;-59
2022/05/19 07:26:54;;;;;;;13.65;4.18;;;17.70;57.40;;;;;;5131892;27;20200;-60
2022/05/19 07:29:25;;;;;;;11.80;3.95;;;17.70;57.40;;;;;;5131752;27;20348;-60
2022/05/19 07:31:58;;;;;;;9.27;3.85;;;17.70;57.40;;;;;;5120667;22;20272;-59
2022/05/19 07:34:32;;;;;;;13.55;4.43;;;17.70;57.50;;;;;;5070784;28;20331;-58
2022/05/19 07:37:03;;;;;;;13.30;4.10;;;17.60;57.40;;;;;;5070839;28;20533;-58
2022/05/19 07:39:33;;;;;;;10.80;4.00;;;17.70;57.50;;;;;;5070512;28;20626;-57
2022/05/19 07:42:04;;;;;;;10.05;3.60;;;17.60;57.40;;;;;;5070524;28;20280;-58
2022/05/19 07:44:35;;;;;;;12.55;4.25;;;17.60;57.40;;;;;;5070033;28;20262;-58
2022/05/19 07:47:06;;;;;;;10.98;4.05;;;17.60;57.40;;;;;;5070583;28;20195;-58
2022/05/19 07:49:38;;;;;;;9.60;3.38;;;17.60;57.40;;;;;;5070358;28;20199;-58
2022/05/19 07:52:09;;;;;;;13.18;4.45;;;17.60;57.40;;;;;;5070523;28;20219;-59
2022/05/19 07:54:40;;;;;;;11.43;4.00;;;17.60;57.50;;;;;;5070187;28;20244;-59
2022/05/19 07:57:11;;;;;;;13.90;4.22;;;17.60;57.50;;;;;;5069693;28;20222;-59
2022/05/19 07:59:42;;;;;;;15.77;4.22;;;17.50;57.40;;;;;;5069913;28;20214;-58
2022/05/19 08:02:12;;;;;;;11.95;4.00;;;17.50;57.40;;;;;;5070184;28;20573;-59
2022/05/19 08:04:45;;;;;;;13.50;4.18;;;17.50;57.40;;;;;;5069916;28;20314;-59
2022/05/19 08:07:15;;;;;;;11.18;4.03;;;17.50;57.40;;;;;;5070016;28;20556;-58
2022/05/19 08:15:38;;;;;;;12.10;4.10;;;17.50;57.40;;;;;;5068797;28;20840;-58
2022/05/19 08:18:11;;;;;;;9.00;4.13;;;17.50;57.30;;;;;;5069303;28;21029;-59
2022/05/19 08:20:45;;;;;;;12.98;4.55;;;17.50;57.30;;;;;;5069591;28;20796;-59
2022/05/19 08:23:19;;;;;;;7.05;3.30;;;17.40;57.30;;;;;;5068717;28;20331;-59
2022/05/19 08:25:50;;;;;;;12.82;4.40;;;17.50;57.30;;;;;;5069400;28;20226;-58
2022/05/19 08:28:21;;;;;;;10.18;4.28;;;17.40;57.30;;;;;;5069906;28;20747;-59
2022/05/19 08:30:59;;;;;;;12.05;4.07;;;17.50;57.40;;;;;;5069709;28;20268;-60
2022/05/19 08:33:30;;;;;;;9.00;3.85;;;17.40;57.30;;;;;;5069901;28;20209;-58
2022/05/19 08:36:04;;;;;;;9.82;4.13;;;17.40;57.30;;;;;;5069825;28;20568;-58
2022/05/19 08:38:35;;;;;;;10.63;4.22;;;17.40;57.40;;;;;;5069106;28;20191;-59
2022/05/19 08:41:10;;;;;;;9.25;3.80;;;17.40;57.40;;;;;;5069134;28;20203;-59
2022/05/19 08:43:47;;;;;;;8.50;3.58;;;17.40;57.40;;;;;;5069295;28;20272;-59
2022/05/19 08:46:23;;;;;;;7.93;3.60;;;17.40;57.40;;;;;;5069157;28;20256;-59
2022/05/19 08:48:59;;;;;;;8.50;3.50;;;17.40;57.40;;;;;;5069333;28;20199;-59
2022/05/19 08:51:37;;;;;;;7.93;4.13;;;17.30;57.30;;;;;;5069535;28;20214;-58
2022/05/19 08:54:10;;;;;;;8.57;3.65;;;17.30;57.30;;;;;;5069801;28;20194;-58
2022/05/19 08:56:46;;;;;;;12.23;3.88;;;17.40;57.40;;;;;;5069424;28;20241;-57
2022/05/19 08:59:29;;;;;;;7.40;3.92;;;17.30;57.30;;;;;;5069535;28;20194;-59
2022/05/19 09:02:06;;;;;;;9.52;4.18;;;17.30;57.30;;;;;;5068989;28;20246;-58
2022/05/19 09:04:46;;;;;;;7.57;3.78;;;17.30;57.30;;;;;;5069294;28;20237;-58
2022/05/19 09:10:29;;;;;;;10.57;4.95;;;17.30;57.30;;;;;;5069550;28;20189;-59
2022/05/19 09:13:08;;;;;;;9.90;5.07;;;17.30;57.30;;;;;;5069207;28;20215;-59
2022/05/19 09:15:40;;;;;;;10.65;5.07;;;17.20;57.30;;;;;;5068971;28;20187;-58
2022/05/19 09:18:12;;;;;;;9.80;4.32;;;17.20;57.30;;;;;;5068886;28;20191;-59
2022/05/19 09:20:47;;;;;;;13.07;4.88;;;17.30;57.30;;;;;;5068663;28;20655;-59
2022/05/19 09:23:20;;;;;;;10.30;4.57;;;17.20;57.30;;;;;;5068756;28;20214;-59
2022/05/19 09:25:56;;;;;;;11.15;4.70;;;17.20;57.30;;;;;;5068953;28;20614;-59
2022/05/19 09:28:26;;;;;;;10.93;4.88;;;17.20;57.30;;;;;;5069021;28;20776;-59
2022/05/19 09:30:59;;;;;;;8.82;4.13;;;17.20;57.30;;;;;;5068422;28;20191;-59
2022/05/19 09:33:35;;;;;;;10.35;4.78;;;17.20;57.30;;;;;;5064778;28;20207;-59
2022/05/19 09:36:12;;;;;;;11.57;4.95;;;17.20;57.30;;;;;;5053221;28;20249;-59
2022/05/19 09:38:50;;;;;;;11.13;4.28;;;17.10;57.20;;;;;;5061836;28;20191;-59
2022/05/19 09:41:28;;;;;;;9.38;4.13;;;17.10;57.20;;;;;;5072574;28;20268;-59
2022/05/19 09:44:00;;;;;;;10.35;5.03;;;17.10;57.20;;;;;;5073012;28;20280;-58
2022/05/19 09:46:41;;;;;;;10.02;4.90;;;17.10;57.20;;;;;;5072336;28;20646;-59
2022/05/19 09:49:28;;;;;;;11.57;4.90;;;17.10;57.20;;;;;;5073189;28;20216;-59
2022/05/19 09:52:03;;;;;;;8.88;4.05;;;17.10;57.20;;;;;;5072402;28;20694;-59
2022/05/19 09:54:36;;;;;;;11.85;4.82;;;17.10;57.20;;;;;;5072655;28;20197;-59
2022/05/19 09:57:12;;;;;;;8.75;4.20;;;17.10;57.30;;;;;;5072414;28;20191;-58
2022/05/19 09:59:49;;;;;;;9.48;4.85;;;17.10;57.90;;;;;;5072217;28;20677;-57
2022/05/19 10:02:28;;;;;;;9.88;4.20;;;17.10;57.30;;;;;;5071904;28;20712;-58
2022/05/19 10:05:01;;;;;;;10.02;4.18;;;17.10;57.30;;;;;;5072806;28;20222;-60
2022/05/19 10:07:40;;;;;;;9.30;4.35;;;17.10;57.40;;;;;;5079666;28;20190;-59
2022/05/19 10:10:22;;;;;;;8.35;4.15;;;17.10;57.40;;;;;;5090276;28;20267;-60
2022/05/19 10:12:56;;;;;;;9.13;4.38;;;17.10;57.40;;;;;;5087601;28;20684;-60
2022/05/19 10:15:30;;;;;;;8.48;4.22;;;17.00;57.30;;;;;;5090110;28;20247;-59
2022/05/19 10:18:18;;;;;;;11.05;4.50;;;17.00;57.20;;;;;;5090883;28;20265;-59
2022/05/19 10:20:55;;;;;;;9.32;4.43;;;17.00;57.20;;;;;;5091173;28;21279;-58
2022/05/19 10:23:45;;;;;;;7.68;4.22;;;17.00;57.20;;;;;;5090637;28;20247;-59
2022/05/19 10:26:30;;;;;;;10.45;4.65;;;17.00;57.20;;;;;;5090678;28;20195;-59
2022/05/19 10:32:29;;;;;;;6.00;3.50;;;17.00;57.10;;;;;;5063808;28;20311;-59
2022/05/19 10:35:11;;;;;;;9.32;4.05;;;17.00;57.00;;;;;;5090850;28;20190;-59
2022/05/19 10:37:56;;;;;;;6.90;3.60;;;17.00;57.00;;;;;;5090489;28;20218;-60
2022/05/19 10:40:51;;;;;;;6.25;3.42;;;17.00;57.00;;;;;;5090462;28;20294;-60
2022/05/19 10:43:35;;;;;;;7.82;3.58;;;17.00;56.90;;;;;;5089223;28;20206;-59
2022/05/19 10:46:09;;;;;;;6.70;3.55;;;17.00;56.90;;;;;;5089635;28;20240;-59
2022/05/19 10:49:06;;;;;;;9.23;4.30;;;17.00;56.90;;;;;;5090107;28;20196;-59
2022/05/19 10:51:57;;;;;;;7.32;3.78;;;16.90;56.90;;;;;;5089796;28;20226;-60
2022/05/19 10:54:46;;;;;;;6.45;3.08;;;16.90;56.90;;;;;;5090486;28;20194;-59
2022/05/19 10:57:44;;;;;;;7.47;3.38;;;17.00;56.90;;;;;;5089931;28;20247;-59
2022/05/19 11:00:22;;;;;;;7.32;3.15;;;16.90;56.80;;;;;;5091334;28;20194;-59
2022/05/19 11:03:16;;;;;;;6.07;3.15;;;16.90;56.70;;;;;;5089261;28;20206;-59
2022/05/19 11:05:58;;;;;;;9.68;4.05;;;16.90;56.70;;;;;;5089030;28;20253;-59
2022/05/19 11:08:43;;;;;;;6.47;3.33;;;16.90;56.70;;;;;;5088219;28;20190;-59
2022/05/19 11:11:21;;;;;;;6.93;3.03;;;16.90;56.70;;;;;;5089229;28;20235;-60
2022/05/19 11:14:05;;;;;;;6.00;3.03;;;16.90;56.60;;;;;;5089852;28;20719;-59
2022/05/19 11:16:44;;;;;;;8.32;3.28;;;16.90;56.60;;;;;;5090273;28;20237;-59
2022/05/19 11:19:20;;;;;;;4.68;2.50;;;16.90;56.60;;;;;;5089024;28;20185;-59
2022/05/19 11:21:55;;;;;;;4.88;2.80;;;16.90;56.60;;;;;;5089338;28;20217;-58
2022/05/19 11:24:32;;;;;;;3.95;2.60;;;16.90;57.10;;;;;;5089102;28;20249;-59
2022/05/19 11:27:08;;;;;;;5.53;2.90;;;16.90;56.50;;;;;;5088685;28;20194;-59
2022/05/19 11:29:44;;;;;;;6.07;2.83;;;16.90;56.50;;;;;;5088988;28;20684;-58
2022/05/19 11:32:22;;;;;;;4.05;2.60;;;16.90;56.60;;;;;;5090169;28;20649;-59
2022/05/19 11:35:00;;;;;;;5.53;2.38;;;16.90;56.60;;;;;;5088840;28;20194;-59
2022/05/19 11:37:38;;;;;;;4.63;2.45;;;16.90;56.50;;;;;;5088884;28;20666;-59
2022/05/19 11:40:16;;;;;;;5.13;2.60;;;16.80;56.40;;;;;;5082407;28;20226;-62
2022/05/19 11:42:51;;;;;;;4.22;2.60;;;16.90;56.50;;;;;;5072178;28;20268;-59
2022/05/19 11:45:32;;;;;;;4.93;2.95;;;16.80;56.40;;;;;;5071548;28;20222;-59
2022/05/19 11:56:48;;;;;;;4.30;2.40;;;16.80;56.70;;;;;;5067812;28;20202;-58
2022/05/19 11:59:19;;;;;;;5.25;2.78;;;16.80;56.40;;;;;;5070659;28;20219;-59
2022/05/19 12:01:54;;;;;;;3.60;2.30;;;16.80;56.50;;;;;;5070323;28;20246;-58
2022/05/19 12:04:30;;;;;;;4.15;2.35;;;16.80;56.50;;;;;;5070007;28;20214;-59
2022/05/19 12:07:22;;;;;;;5.10;2.20;;;16.80;56.50;;;;;;5070017;28;20218;-59
2022/05/19 12:09:59;;;;;;;3.83;2.35;;;16.80;56.50;;;;;;5069388;28;20272;-59
2022/05/19 12:12:33;;;;;;;4.35;2.13;;;16.80;56.50;;;;;;5069688;28;20254;-59
2022/05/19 12:15:19;;;;;;;4.10;2.42;;;16.80;56.50;;;;;;5069966;28;20244;-59
2022/05/19 12:17:58;;;;;;;3.20;2.03;;;16.80;56.50;;;;;;5070108;28;20197;-59
2022/05/19 12:20:46;;;;;;;4.47;2.30;;;16.80;56.50;;;;;;5069989;28;20194;-59
2022/05/19 12:23:28;;;;;;;5.13;2.40;;;16.80;56.50;;;;;;5069843;28;20211;-59
2022/05/19 12:26:02;;;;;;;3.35;2.03;;;16.80;56.50;;;;;;5069426;28;20215;-59
2022/05/19 12:28:47;;;;;;;4.07;2.20;;;16.80;56.50;;;;;;5069857;28;20202;-59
2022/05/19 12:34:11;;;;;;;3.92;2.30;;;16.80;56.50;;;;;;5070142;28;20210;-59
2022/05/19 12:36:47;;;;;;;3.17;2.20;;;16.70;56.50;;;;;;5069875;28;20199;-59
2022/05/19 12:39:44;;;;;;;3.28;2.00;;;16.70;56.50;;;;;;5069711;28;20198;-59
2022/05/19 12:42:21;;;;;;;4.03;2.00;;;16.70;56.50;;;;;;5068299;28;20214;-59
2022/05/19 12:44:54;;;;;;;3.15;1.70;;;16.70;56.50;;;;;;5070098;28;20283;-59
2022/05/19 12:47:29;;;;;;;5.22;2.15;;;16.70;56.50;;;;;;5070160;28;20195;-58
2022/05/19 12:50:21;;;;;;;2.25;1.83;;;16.70;56.50;;;;;;5070106;28;20733;-59
2022/05/19 12:53:13;;;;;;;3.20;1.77;;;16.70;56.50;;;;;;5050535;28;20242;-59
2022/05/19 12:55:53;;;;;;;3.83;2.10;;;16.70;56.40;;;;;;5069208;28;20214;-58
2022/05/19 12:58:49;;;;;;;3.88;2.20;;;16.70;56.30;;;;;;5069626;28;20194;-58
2022/05/19 13:01:26;;;;;;;2.28;1.50;;;16.70;56.30;;;;;;5069284;28;20817;-58
2022/05/19 13:04:05;;;;;;;3.55;1.90;;;16.70;56.30;;;;;;5069630;28;20195;-58
2022/05/19 13:06:37;;;;;;;2.80;1.77;;;16.70;56.30;;;;;;5069874;28;20206;-59
2022/05/19 13:09:12;;;;;;;3.00;2.00;;;16.70;56.30;;;;;;5070262;28;20263;-58
2022/05/19 13:11:49;;;;;;;2.85;1.67;;;16.60;56.20;;;;;;5073246;28;20272;-58
2022/05/19 13:14:22;;;;;;;2.53;1.52;;;16.60;56.20;;;;;;5073693;28;20218;-58
2022/05/19 13:16:55;;;;;;;2.88;1.58;;;16.60;56.20;;;;;;5073746;28;20194;-58
2022/05/19 13:19:28;;;;;;;2.83;1.58;;;16.60;56.30;;;;;;5073421;28;20235;-58
2022/05/19 13:22:03;;;;;;;3.67;1.70;;;16.60;56.20;;;;;;5073409;28;20246;-59
2022/05/19 13:24:39;;;;;;;3.55;1.70;;;16.60;56.30;;;;;;5073593;28;20253;-59
2022/05/19 13:30:22;;;;;;;3.42;1.60;;;16.60;56.30;;;;;;5073049;28;20549;-59
2022/05/19 13:32:53;;;;;;;2.45;1.67;;;16.60;56.30;;;;;;5073693;28;20288;-59
2022/05/19 13:35:25;;;;;;;3.80;1.67;;;16.60;56.20;;;;;;5073252;28;20191;-58
2022/05/19 13:37:57;;;;;;;2.30;1.60;;;16.60;56.20;;;;;;5073250;28;20191;-58
2022/05/19 13:40:31;;;;;;;4.32;1.88;;;16.60;56.20;;;;;;5072745;28;20199;-58
2022/05/19 13:43:04;;;;;;;3.25;1.45;;;16.60;56.10;;;;;;5072957;28;20221;-59
2022/05/19 13:45:40;;;;;;;1.67;1.27;;;16.60;56.10;;;;;;5072845;28;20258;-59
2022/05/19 13:48:19;;;;;;;1.88;1.30;;;16.60;56.10;;;;;;5073069;28;20716;-59
2022/05/19 13:50:50;;;;;;;2.70;1.38;;;16.60;56.10;;;;;;5073041;28;20256;-59
2022/05/19 13:53:22;;;;;;;2.28;1.20;;;16.60;56.10;;;;;;5073070;28;20312;-58
2022/05/19 13:56:01;;;;;;;2.95;1.13;;;16.60;56.10;;;;;;5072549;28;20654;-59